sensor_id;sensor_type;location;lat;lon;timestamp;P1;P2;P0
42410;PMS5003;28056;51.112;0.984;2023-09-19T00:01:03;1;1;
42410;PMS5003;28056;51.112;0.984;2023-09-19T00:04:45;2;2;
42410;PMS5003;28056;51.112;0.984;2023-09-19T00:07:13;0;0;
42410;PMS5003;28056;51.112;0.984;2023-09-19T00:09:41;2;2;
42410;PMS5003;28056;51.112;0.984;2023-09-19T00:12:08;1;1;
42410;PMS5003;28056;51.112;0.984;2023-09-19T00:14:35;2;2;
42410;PMS5003;28056;51.112;0.984;2023-09-19T00:17:03;1;1;
42410;PMS5003;28056;51.112;0.984;2023-09-19T00:19:31;8;3;
42410;PMS5003;28056;51.112;0.984;2023-09-19T00:21:58;2;2;
42410;PMS5003;28056;51.112;0.984;2023-09-19T00:24:26;2;1;
42410;PMS5003;28056;51.112;0.984;2023-09-19T00:26:54;5;1;
42410;PMS5003;28056;51.112;0.984;2023-09-19T00:29:21;2;2;
42410;PMS5003;28056;51.112;0.984;2023-09-19T00:31:49;4;3;
42410;PMS5003;28056;51.112;0.984;2023-09-19T00:34:17;1;1;
42410;PMS5003;28056;51.112;0.984;2023-09-19T00:36:44;4;1;
42410;PMS5003;28056;51.112;0.984;2023-09-19T00:39:11;1;1;
42410;PMS5003;28056;51.112;0.984;2023-09-19T00:41:39;3;3;
42410;PMS5003;28056;51.112;0.984;2023-09-19T00:44:06;4;2;
42410;PMS5003;28056;51.112;0.984;2023-09-19T00:46:34;3;1;
42410;PMS5003;28056;51.112;0.984;2023-09-19T00:49:02;2;2;
42410;PMS5003;28056;51.112;0.984;2023-09-19T00:51:29;1;1;
42410;PMS5003;28056;51.112;0.984;2023-09-19T00:53:57;1;1;
42410;PMS5003;28056;51.112;0.984;2023-09-19T00:56:26;3;2;
42410;PMS5003;28056;51.112;0.984;2023-09-19T00:58:53;3;1;
42410;PMS5003;28056;51.112;0.984;2023-09-19T01:01:21;1;1;
42410;PMS5003;28056;51.112;0.984;2023-09-19T01:03:48;1;1;
42410;PMS5003;28056;51.112;0.984;2023-09-19T01:06:16;3;1;
42410;PMS5003;28056;51.112;0.984;2023-09-19T01:08:44;3;1;
42410;PMS5003;28056;51.112;0.984;2023-09-19T01:11:13;1;1;
42410;PMS5003;28056;51.112;0.984;2023-09-19T01:13:50;2;1;
42410;PMS5003;28056;51.112;0.984;2023-09-19T01:16:26;5;4;
42410;PMS5003;28056;51.112;0.984;2023-09-19T01:19:05;2;1;
42410;PMS5003;28056;51.112;0.984;2023-09-19T01:21:48;1;1;
42410;PMS5003;28056;51.112;0.984;2023-09-19T01:24:41;3;2;
42410;PMS5003;28056;51.112;0.984;2023-09-19T01:27:26;3;3;
42410;PMS5003;28056;51.112;0.984;2023-09-19T01:30:14;5;1;
42410;PMS5003;28056;51.112;0.984;2023-09-19T01:32:49;3;1;
42410;PMS5003;28056;51.112;0.984;2023-09-19T01:35:17;1;1;
42410;PMS5003;28056;51.112;0.984;2023-09-19T01:37:45;2;2;
42410;PMS5003;28056;51.112;0.984;2023-09-19T01:40:14;8;2;
42410;PMS5003;28056;51.112;0.984;2023-09-19T01:42:48;3;2;
42410;PMS5003;28056;51.112;0.984;2023-09-19T01:45:24;0;0;
42410;PMS5003;28056;51.112;0.984;2023-09-19T01:48:05;2;2;
42410;PMS5003;28056;51.112;0.984;2023-09-19T01:50:48;2;2;
42410;PMS5003;28056;51.112;0.984;2023-09-19T01:53:22;2;2;
42410;PMS5003;28056;51.112;0.984;2023-09-19T01:55:52;3;1;
42410;PMS5003;28056;51.112;0.984;2023-09-19T01:58:21;3;1;
42410;PMS5003;28056;51.112;0.984;2023-09-19T02:00:58;1;1;
42410;PMS5003;28056;51.112;0.984;2023-09-19T02:03:28;2;2;
42410;PMS5003;28056;51.112;0.984;2023-09-19T02:05:58;4;2;
42410;PMS5003;28056;51.112;0.984;2023-09-19T02:08:25;3;3;
42410;PMS5003;28056;51.112;0.984;2023-09-19T02:10:53;3;1;
42410;PMS5003;28056;51.112;0.984;2023-09-19T02:13:21;5;2;
42410;PMS5003;28056;51.112;0.984;2023-09-19T02:15:49;2;1;
42410;PMS5003;28056;51.112;0.984;2023-09-19T02:18:17;1;1;
42410;PMS5003;28056;51.112;0.984;2023-09-19T02:20:45;1;1;
42410;PMS5003;28056;51.112;0.984;2023-09-19T02:23:13;1;1;
42410;PMS5003;28056;51.112;0.984;2023-09-19T02:25:40;4;3;
42410;PMS5003;28056;51.112;0.984;2023-09-19T02:28:08;6;2;
42410;PMS5003;28056;51.112;0.984;2023-09-19T02:30:35;2;2;
42410;PMS5003;28056;51.112;0.984;2023-09-19T02:33:03;5;4;
42410;PMS5003;28056;51.112;0.984;2023-09-19T02:35:30;8;5;
42410;PMS5003;28056;51.112;0.984;2023-09-19T02:37:57;4;2;
42410;PMS5003;28056;51.112;0.984;2023-09-19T02:40:25;4;3;
42410;PMS5003;28056;51.112;0.984;2023-09-19T02:42:53;10;8;
42410;PMS5003;28056;51.112;0.984;2023-09-19T02:45:21;8;3;
42410;PMS5003;28056;51.112;0.984;2023-09-19T02:47:49;4;3;
42410;PMS5003;28056;51.112;0.984;2023-09-19T02:50:17;3;3;
42410;PMS5003;28056;51.112;0.984;2023-09-19T02:52:45;1;1;
42410;PMS5003;28056;51.112;0.984;2023-09-19T02:55:13;3;2;
42410;PMS5003;28056;51.112;0.984;2023-09-19T02:57:40;10;2;
42410;PMS5003;28056;51.112;0.984;2023-09-19T03:00:12;4;3;
42410;PMS5003;28056;51.112;0.984;2023-09-19T03:02:40;4;2;
42410;PMS5003;28056;51.112;0.984;2023-09-19T03:05:08;5;1;
42410;PMS5003;28056;51.112;0.984;2023-09-19T03:07:36;8;3;
42410;PMS5003;28056;51.112;0.984;2023-09-19T03:10:03;4;1;
42410;PMS5003;28056;51.112;0.984;2023-09-19T03:12:31;4;4;
42410;PMS5003;28056;51.112;0.984;2023-09-19T03:14:59;3;3;
42410;PMS5003;28056;51.112;0.984;2023-09-19T03:17:26;7;2;
42410;PMS5003;28056;51.112;0.984;2023-09-19T03:19:53;1;1;
42410;PMS5003;28056;51.112;0.984;2023-09-19T03:22:20;4;3;
42410;PMS5003;28056;51.112;0.984;2023-09-19T03:24:47;4;3;
42410;PMS5003;28056;51.112;0.984;2023-09-19T03:27:15;5;2;
42410;PMS5003;28056;51.112;0.984;2023-09-19T03:29:42;2;2;
42410;PMS5003;28056;51.112;0.984;2023-09-19T03:32:10;2;2;
42410;PMS5003;28056;51.112;0.984;2023-09-19T03:34:37;5;4;
42410;PMS5003;28056;51.112;0.984;2023-09-19T03:37:05;4;2;
42410;PMS5003;28056;51.112;0.984;2023-09-19T03:39:33;3;3;
42410;PMS5003;28056;51.112;0.984;2023-09-19T03:42:01;4;2;
42410;PMS5003;28056;51.112;0.984;2023-09-19T03:44:28;5;2;
42410;PMS5003;28056;51.112;0.984;2023-09-19T03:46:56;3;3;
42410;PMS5003;28056;51.112;0.984;2023-09-19T03:49:24;2;2;
42410;PMS5003;28056;51.112;0.984;2023-09-19T03:52:02;8;2;
42410;PMS5003;28056;51.112;0.984;2023-09-19T03:54:29;4;3;
42410;PMS5003;28056;51.112;0.984;2023-09-19T03:56:58;3;1;
42410;PMS5003;28056;51.112;0.984;2023-09-19T03:59:26;1;1;
42410;PMS5003;28056;51.112;0.984;2023-09-19T04:01:53;4;4;
42410;PMS5003;28056;51.112;0.984;2023-09-19T04:04:21;5;2;
42410;PMS5003;28056;51.112;0.984;2023-09-19T04:06:48;3;3;
42410;PMS5003;28056;51.112;0.984;2023-09-19T04:09:16;5;2;
42410;PMS5003;28056;51.112;0.984;2023-09-19T04:11:43;5;2;
42410;PMS5003;28056;51.112;0.984;2023-09-19T04:14:11;2;1;
42410;PMS5003;28056;51.112;0.984;2023-09-19T04:16:37;1;1;
42410;PMS5003;28056;51.112;0.984;2023-09-19T04:19:05;2;1;
42410;PMS5003;28056;51.112;0.984;2023-09-19T04:21:33;4;2;
42410;PMS5003;28056;51.112;0.984;2023-09-19T04:24:01;6;1;
42410;PMS5003;28056;51.112;0.984;2023-09-19T04:26:28;3;2;
42410;PMS5003;28056;51.112;0.984;2023-09-19T04:28:56;2;2;
42410;PMS5003;28056;51.112;0.984;2023-09-19T04:31:23;5;5;
42410;PMS5003;28056;51.112;0.984;2023-09-19T04:33:50;2;2;
42410;PMS5003;28056;51.112;0.984;2023-09-19T04:36:17;4;4;
42410;PMS5003;28056;51.112;0.984;2023-09-19T04:38:44;6;3;
42410;PMS5003;28056;51.112;0.984;2023-09-19T04:41:12;5;1;
42410;PMS5003;28056;51.112;0.984;2023-09-19T04:43:40;2;2;
42410;PMS5003;28056;51.112;0.984;2023-09-19T04:46:08;5;2;
42410;PMS5003;28056;51.112;0.984;2023-09-19T04:48:35;6;1;
42410;PMS5003;28056;51.112;0.984;2023-09-19T04:51:03;4;1;
42410;PMS5003;28056;51.112;0.984;2023-09-19T04:53:31;1;1;
42410;PMS5003;28056;51.112;0.984;2023-09-19T04:55:58;4;2;
42410;PMS5003;28056;51.112;0.984;2023-09-19T04:58:25;4;3;
42410;PMS5003;28056;51.112;0.984;2023-09-19T05:00:53;4;3;
42410;PMS5003;28056;51.112;0.984;2023-09-19T05:03:20;4;3;
42410;PMS5003;28056;51.112;0.984;2023-09-19T05:05:48;3;2;
42410;PMS5003;28056;51.112;0.984;2023-09-19T05:08:16;2;2;
42410;PMS5003;28056;51.112;0.984;2023-09-19T05:10:43;6;1;
42410;PMS5003;28056;51.112;0.984;2023-09-19T05:13:11;4;3;
42410;PMS5003;28056;51.112;0.984;2023-09-19T05:15:38;6;3;
42410;PMS5003;28056;51.112;0.984;2023-09-19T05:18:05;4;1;
42410;PMS5003;28056;51.112;0.984;2023-09-19T05:20:33;3;3;
42410;PMS5003;28056;51.112;0.984;2023-09-19T05:23:01;8;2;
42410;PMS5003;28056;51.112;0.984;2023-09-19T05:25:30;4;4;
42410;PMS5003;28056;51.112;0.984;2023-09-19T05:27:59;3;1;
42410;PMS5003;28056;51.112;0.984;2023-09-19T05:30:27;1;1;
42410;PMS5003;28056;51.112;0.984;2023-09-19T05:32:54;2;2;
42410;PMS5003;28056;51.112;0.984;2023-09-19T05:35:22;4;3;
42410;PMS5003;28056;51.112;0.984;2023-09-19T05:37:50;2;1;
42410;PMS5003;28056;51.112;0.984;2023-09-19T05:40:18;9;3;
42410;PMS5003;28056;51.112;0.984;2023-09-19T05:42:46;4;2;
42410;PMS5003;28056;51.112;0.984;2023-09-19T05:45:14;3;2;
42410;PMS5003;28056;51.112;0.984;2023-09-19T05:47:42;2;2;
42410;PMS5003;28056;51.112;0.984;2023-09-19T05:50:09;2;1;
42410;PMS5003;28056;51.112;0.984;2023-09-19T05:52:37;2;2;
42410;PMS5003;28056;51.112;0.984;2023-09-19T05:55:05;2;2;
42410;PMS5003;28056;51.112;0.984;2023-09-19T05:57:32;5;3;
42410;PMS5003;28056;51.112;0.984;2023-09-19T06:00:00;1;1;
42410;PMS5003;28056;51.112;0.984;2023-09-19T06:02:27;1;1;
42410;PMS5003;28056;51.112;0.984;2023-09-19T06:04:55;4;1;
42410;PMS5003;28056;51.112;0.984;2023-09-19T06:07:22;1;1;
42410;PMS5003;28056;51.112;0.984;2023-09-19T06:09:50;5;2;
42410;PMS5003;28056;51.112;0.984;2023-09-19T06:12:17;2;2;
42410;PMS5003;28056;51.112;0.984;2023-09-19T06:14:45;2;1;
42410;PMS5003;28056;51.112;0.984;2023-09-19T06:17:13;0;0;
42410;PMS5003;28056;51.112;0.984;2023-09-19T06:19:40;4;2;
42410;PMS5003;28056;51.112;0.984;2023-09-19T06:22:23;6;3;
42410;PMS5003;28056;51.112;0.984;2023-09-19T06:24:50;2;2;
42410;PMS5003;28056;51.112;0.984;2023-09-19T06:27:18;2;1;
42410;PMS5003;28056;51.112;0.984;2023-09-19T06:29:46;2;1;
42410;PMS5003;28056;51.112;0.984;2023-09-19T06:32:13;6;3;
42410;PMS5003;28056;51.112;0.984;2023-09-19T06:34:41;2;1;
42410;PMS5003;28056;51.112;0.984;2023-09-19T06:37:09;3;1;
42410;PMS5003;28056;51.112;0.984;2023-09-19T06:39:36;1;0;
42410;PMS5003;28056;51.112;0.984;2023-09-19T06:42:04;2;2;
42410;PMS5003;28056;51.112;0.984;2023-09-19T06:44:31;3;2;
42410;PMS5003;28056;51.112;0.984;2023-09-19T06:46:59;5;1;
42410;PMS5003;28056;51.112;0.984;2023-09-19T06:49:27;3;2;
42410;PMS5003;28056;51.112;0.984;2023-09-19T06:51:54;2;2;
42410;PMS5003;28056;51.112;0.984;2023-09-19T06:54:22;3;1;
42410;PMS5003;28056;51.112;0.984;2023-09-19T06:56:49;1;1;
42410;PMS5003;28056;51.112;0.984;2023-09-19T06:59:16;4;1;
42410;PMS5003;28056;51.112;0.984;2023-09-19T07:01:44;2;2;
42410;PMS5003;28056;51.112;0.984;2023-09-19T07:04:11;2;0;
42410;PMS5003;28056;51.112;0.984;2023-09-19T07:06:39;10;3;
42410;PMS5003;28056;51.112;0.984;2023-09-19T07:09:06;1;1;
42410;PMS5003;28056;51.112;0.984;2023-09-19T07:11:34;1;1;
42410;PMS5003;28056;51.112;0.984;2023-09-19T07:14:02;5;1;
42410;PMS5003;28056;51.112;0.984;2023-09-19T07:16:29;1;1;
42410;PMS5003;28056;51.112;0.984;2023-09-19T07:18:56;2;2;
42410;PMS5003;28056;51.112;0.984;2023-09-19T07:21:24;2;2;
42410;PMS5003;28056;51.112;0.984;2023-09-19T07:23:52;2;2;
42410;PMS5003;28056;51.112;0.984;2023-09-19T07:26:19;3;2;
42410;PMS5003;28056;51.112;0.984;2023-09-19T07:28:47;2;2;
42410;PMS5003;28056;51.112;0.984;2023-09-19T07:31:14;2;2;
42410;PMS5003;28056;51.112;0.984;2023-09-19T07:33:42;2;2;
42410;PMS5003;28056;51.112;0.984;2023-09-19T07:36:10;1;1;
42410;PMS5003;28056;51.112;0.984;2023-09-19T07:38:38;4;2;
42410;PMS5003;28056;51.112;0.984;2023-09-19T07:41:05;5;4;
42410;PMS5003;28056;51.112;0.984;2023-09-19T07:43:33;3;3;
42410;PMS5003;28056;51.112;0.984;2023-09-19T07:46:03;6;3;
42410;PMS5003;28056;51.112;0.984;2023-09-19T07:48:31;4;2;
42410;PMS5003;28056;51.112;0.984;2023-09-19T07:51:01;3;3;
42410;PMS5003;28056;51.112;0.984;2023-09-19T07:53:29;2;2;
42410;PMS5003;28056;51.112;0.984;2023-09-19T07:56:01;5;3;
42410;PMS5003;28056;51.112;0.984;2023-09-19T07:58:29;2;2;
42410;PMS5003;28056;51.112;0.984;2023-09-19T08:00:57;6;4;
42410;PMS5003;28056;51.112;0.984;2023-09-19T08:03:29;5;3;
42410;PMS5003;28056;51.112;0.984;2023-09-19T08:05:57;4;3;
42410;PMS5003;28056;51.112;0.984;2023-09-19T08:08:25;3;1;
42410;PMS5003;28056;51.112;0.984;2023-09-19T08:10:53;4;2;
42410;PMS5003;28056;51.112;0.984;2023-09-19T08:13:21;3;3;
42410;PMS5003;28056;51.112;0.984;2023-09-19T08:15:48;1;1;
42410;PMS5003;28056;51.112;0.984;2023-09-19T08:18:16;2;2;
42410;PMS5003;28056;51.112;0.984;2023-09-19T08:20:43;2;2;
42410;PMS5003;28056;51.112;0.984;2023-09-19T08:23:16;4;2;
42410;PMS5003;28056;51.112;0.984;2023-09-19T08:25:44;2;2;
42410;PMS5003;28056;51.112;0.984;2023-09-19T08:28:11;2;2;
42410;PMS5003;28056;51.112;0.984;2023-09-19T08:30:39;4;4;
42410;PMS5003;28056;51.112;0.984;2023-09-19T08:33:06;2;1;
42410;PMS5003;28056;51.112;0.984;2023-09-19T08:35:34;6;3;
42410;PMS5003;28056;51.112;0.984;2023-09-19T08:38:01;2;1;
42410;PMS5003;28056;51.112;0.984;2023-09-19T08:40:29;5;1;
42410;PMS5003;28056;51.112;0.984;2023-09-19T08:42:57;4;2;
42410;PMS5003;28056;51.112;0.984;2023-09-19T08:45:24;6;3;
42410;PMS5003;28056;51.112;0.984;2023-09-19T08:47:55;2;2;
42410;PMS5003;28056;51.112;0.984;2023-09-19T08:50:30;5;2;
42410;PMS5003;28056;51.112;0.984;2023-09-19T08:53:00;2;2;
42410;PMS5003;28056;51.112;0.984;2023-09-19T08:55:28;3;2;
42410;PMS5003;28056;51.112;0.984;2023-09-19T08:57:59;6;1;
42410;PMS5003;28056;51.112;0.984;2023-09-19T09:00:30;2;2;
42410;PMS5003;28056;51.112;0.984;2023-09-19T09:02:58;3;3;
42410;PMS5003;28056;51.112;0.984;2023-09-19T09:05:29;5;2;
42410;PMS5003;28056;51.112;0.984;2023-09-19T09:07:57;7;4;
42410;PMS5003;28056;51.112;0.984;2023-09-19T09:10:25;10;7;
42410;PMS5003;28056;51.112;0.984;2023-09-19T09:12:53;5;2;
42410;PMS5003;28056;51.112;0.984;2023-09-19T09:15:21;5;2;
42410;PMS5003;28056;51.112;0.984;2023-09-19T09:17:50;7;5;
42410;PMS5003;28056;51.112;0.984;2023-09-19T09:20:18;6;2;
42410;PMS5003;28056;51.112;0.984;2023-09-19T09:22:53;6;3;
42410;PMS5003;28056;51.112;0.984;2023-09-19T09:25:21;2;2;
42410;PMS5003;28056;51.112;0.984;2023-09-19T09:27:58;5;5;
42410;PMS5003;28056;51.112;0.984;2023-09-19T09:30:34;5;3;
42410;PMS5003;28056;51.112;0.984;2023-09-19T09:33:10;4;2;
42410;PMS5003;28056;51.112;0.984;2023-09-19T09:35:46;6;4;
42410;PMS5003;28056;51.112;0.984;2023-09-19T09:38:16;7;4;
42410;PMS5003;28056;51.112;0.984;2023-09-19T09:40:48;11;7;
42410;PMS5003;28056;51.112;0.984;2023-09-19T09:43:32;9;3;
42410;PMS5003;28056;51.112;0.984;2023-09-19T09:46:09;7;5;
42410;PMS5003;28056;51.112;0.984;2023-09-19T09:48:38;4;3;
42410;PMS5003;28056;51.112;0.984;2023-09-19T09:51:06;6;4;
42410;PMS5003;28056;51.112;0.984;2023-09-19T09:53:34;3;3;
42410;PMS5003;28056;51.112;0.984;2023-09-19T09:56:02;7;5;
42410;PMS5003;28056;51.112;0.984;2023-09-19T09:58:30;7;3;
42410;PMS5003;28056;51.112;0.984;2023-09-19T10:00:58;5;3;
42410;PMS5003;28056;51.112;0.984;2023-09-19T10:03:33;12;6;
42410;PMS5003;28056;51.112;0.984;2023-09-19T10:06:01;5;3;
42410;PMS5003;28056;51.112;0.984;2023-09-19T10:08:29;5;3;
42410;PMS5003;28056;51.112;0.984;2023-09-19T10:10:57;5;4;
42410;PMS5003;28056;51.112;0.984;2023-09-19T10:13:25;7;4;
42410;PMS5003;28056;51.112;0.984;2023-09-19T10:15:55;7;4;
42410;PMS5003;28056;51.112;0.984;2023-09-19T10:18:25;5;3;
42410;PMS5003;28056;51.112;0.984;2023-09-19T10:20:54;12;6;
42410;PMS5003;28056;51.112;0.984;2023-09-19T10:23:22;5;4;
42410;PMS5003;28056;51.112;0.984;2023-09-19T10:25:51;4;3;
42410;PMS5003;28056;51.112;0.984;2023-09-19T10:28:20;6;3;
42410;PMS5003;28056;51.112;0.984;2023-09-19T10:30:49;6;4;
42410;PMS5003;28056;51.112;0.984;2023-09-19T10:33:18;5;3;
42410;PMS5003;28056;51.112;0.984;2023-09-19T10:35:47;4;4;
42410;PMS5003;28056;51.112;0.984;2023-09-19T10:38:17;6;6;
42410;PMS5003;28056;51.112;0.984;2023-09-19T10:40:48;7;6;
42410;PMS5003;28056;51.112;0.984;2023-09-19T10:43:18;6;4;
42410;PMS5003;28056;51.112;0.984;2023-09-19T10:45:46;7;5;
42410;PMS5003;28056;51.112;0.984;2023-09-19T10:48:15;9;5;
42410;PMS5003;28056;51.112;0.984;2023-09-19T10:50:43;11;4;
42410;PMS5003;28056;51.112;0.984;2023-09-19T10:53:14;9;5;
42410;PMS5003;28056;51.112;0.984;2023-09-19T10:55:48;9;6;
42410;PMS5003;28056;51.112;0.984;2023-09-19T10:58:27;8;4;
42410;PMS5003;28056;51.112;0.984;2023-09-19T11:00:56;8;6;
42410;PMS5003;28056;51.112;0.984;2023-09-19T11:03:24;6;4;
42410;PMS5003;28056;51.112;0.984;2023-09-19T11:06:09;8;5;
42410;PMS5003;28056;51.112;0.984;2023-09-19T11:09:09;6;6;
42410;PMS5003;28056;51.112;0.984;2023-09-19T11:11:41;8;6;
42410;PMS5003;28056;51.112;0.984;2023-09-19T11:14:42;9;6;
42410;PMS5003;28056;51.112;0.984;2023-09-19T11:17:30;7;5;
42410;PMS5003;28056;51.112;0.984;2023-09-19T11:20:31;6;4;
42410;PMS5003;28056;51.112;0.984;2023-09-19T11:23:30;5;4;
42410;PMS5003;28056;51.112;0.984;2023-09-19T11:25:58;8;6;
42410;PMS5003;28056;51.112;0.984;2023-09-19T11:28:29;5;5;
42410;PMS5003;28056;51.112;0.984;2023-09-19T11:30:58;8;4;
42410;PMS5003;28056;51.112;0.984;2023-09-19T11:34:48;8;5;
42410;PMS5003;28056;51.112;0.984;2023-09-19T11:39:00;8;5;
42410;PMS5003;28056;51.112;0.984;2023-09-19T11:41:43;11;6;
42410;PMS5003;28056;51.112;0.984;2023-09-19T11:44:43;8;5;
42410;PMS5003;28056;51.112;0.984;2023-09-19T11:47:10;9;7;
42410;PMS5003;28056;51.112;0.984;2023-09-19T11:49:40;6;6;
42410;PMS5003;28056;51.112;0.984;2023-09-19T11:52:07;6;5;
42410;PMS5003;28056;51.112;0.984;2023-09-19T11:54:36;15;8;
42410;PMS5003;28056;51.112;0.984;2023-09-19T11:57:03;8;6;
42410;PMS5003;28056;51.112;0.984;2023-09-19T11:59:31;7;7;
42410;PMS5003;28056;51.112;0.984;2023-09-19T12:02:00;10;6;
42410;PMS5003;28056;51.112;0.984;2023-09-19T12:04:33;6;6;
42410;PMS5003;28056;51.112;0.984;2023-09-19T12:07:02;6;4;
42410;PMS5003;28056;51.112;0.984;2023-09-19T12:09:30;10;7;
42410;PMS5003;28056;51.112;0.984;2023-09-19T12:11:57;12;8;
42410;PMS5003;28056;51.112;0.984;2023-09-19T12:14:25;8;7;
42410;PMS5003;28056;51.112;0.984;2023-09-19T12:16:54;6;5;
42410;PMS5003;28056;51.112;0.984;2023-09-19T12:19:21;6;4;
42410;PMS5003;28056;51.112;0.984;2023-09-19T12:21:57;5;4;
42410;PMS5003;28056;51.112;0.984;2023-09-19T12:24:26;15;8;
42410;PMS5003;28056;51.112;0.984;2023-09-19T12:26:53;8;4;
42410;PMS5003;28056;51.112;0.984;2023-09-19T12:29:21;5;5;
42410;PMS5003;28056;51.112;0.984;2023-09-19T12:31:49;9;6;
42410;PMS5003;28056;51.112;0.984;2023-09-19T12:34:19;13;6;
42410;PMS5003;28056;51.112;0.984;2023-09-19T12:36:48;11;10;
42410;PMS5003;28056;51.112;0.984;2023-09-19T12:39:23;15;8;
42410;PMS5003;28056;51.112;0.984;2023-09-19T12:41:51;9;5;
42410;PMS5003;28056;51.112;0.984;2023-09-19T12:44:19;13;8;
42410;PMS5003;28056;51.112;0.984;2023-09-19T12:46:47;7;6;
42410;PMS5003;28056;51.112;0.984;2023-09-19T12:49:15;11;6;
42410;PMS5003;28056;51.112;0.984;2023-09-19T12:51:43;8;6;
42410;PMS5003;28056;51.112;0.984;2023-09-19T12:54:10;11;6;
42410;PMS5003;28056;51.112;0.984;2023-09-19T12:56:39;8;6;
42410;PMS5003;28056;51.112;0.984;2023-09-19T12:59:07;6;5;
42410;PMS5003;28056;51.112;0.984;2023-09-19T13:01:35;5;4;
42410;PMS5003;28056;51.112;0.984;2023-09-19T13:04:18;7;5;
42410;PMS5003;28056;51.112;0.984;2023-09-19T13:06:47;8;5;
42410;PMS5003;28056;51.112;0.984;2023-09-19T13:09:16;14;7;
42410;PMS5003;28056;51.112;0.984;2023-09-19T13:11:44;7;4;
42410;PMS5003;28056;51.112;0.984;2023-09-19T13:14:14;9;5;
42410;PMS5003;28056;51.112;0.984;2023-09-19T13:16:59;13;7;
42410;PMS5003;28056;51.112;0.984;2023-09-19T13:19:41;9;6;
42410;PMS5003;28056;51.112;0.984;2023-09-19T13:22:43;8;8;
42410;PMS5003;28056;51.112;0.984;2023-09-19T13:25:12;8;7;
42410;PMS5003;28056;51.112;0.984;2023-09-19T13:27:41;10;8;
42410;PMS5003;28056;51.112;0.984;2023-09-19T13:30:10;9;9;
42410;PMS5003;28056;51.112;0.984;2023-09-19T13:32:38;13;7;
42410;PMS5003;28056;51.112;0.984;2023-09-19T13:35:06;12;9;
42410;PMS5003;28056;51.112;0.984;2023-09-19T13:37:34;9;6;
42410;PMS5003;28056;51.112;0.984;2023-09-19T13:40:02;12;8;
42410;PMS5003;28056;51.112;0.984;2023-09-19T13:42:29;7;7;
42410;PMS5003;28056;51.112;0.984;2023-09-19T13:44:56;4;4;
42410;PMS5003;28056;51.112;0.984;2023-09-19T13:47:24;7;5;
42410;PMS5003;28056;51.112;0.984;2023-09-19T13:49:52;6;4;
42410;PMS5003;28056;51.112;0.984;2023-09-19T13:52:19;13;7;
42410;PMS5003;28056;51.112;0.984;2023-09-19T13:54:47;8;3;
42410;PMS5003;28056;51.112;0.984;2023-09-19T13:57:14;6;4;
42410;PMS5003;28056;51.112;0.984;2023-09-19T13:59:42;5;5;
42410;PMS5003;28056;51.112;0.984;2023-09-19T14:02:10;7;4;
42410;PMS5003;28056;51.112;0.984;2023-09-19T14:04:37;8;5;
42410;PMS5003;28056;51.112;0.984;2023-09-19T14:07:05;10;7;
42410;PMS5003;28056;51.112;0.984;2023-09-19T14:09:32;10;7;
42410;PMS5003;28056;51.112;0.984;2023-09-19T14:11:59;4;4;
42410;PMS5003;28056;51.112;0.984;2023-09-19T14:14:27;3;3;
42410;PMS5003;28056;51.112;0.984;2023-09-19T14:16:54;9;6;
42410;PMS5003;28056;51.112;0.984;2023-09-19T14:19:22;4;4;
42410;PMS5003;28056;51.112;0.984;2023-09-19T14:21:50;7;6;
42410;PMS5003;28056;51.112;0.984;2023-09-19T14:24:18;4;4;
42410;PMS5003;28056;51.112;0.984;2023-09-19T14:26:45;7;5;
42410;PMS5003;28056;51.112;0.984;2023-09-19T14:29:12;9;7;
42410;PMS5003;28056;51.112;0.984;2023-09-19T14:31:40;8;7;
42410;PMS5003;28056;51.112;0.984;2023-09-19T14:34:07;14;9;
42410;PMS5003;28056;51.112;0.984;2023-09-19T14:36:34;4;4;
42410;PMS5003;28056;51.112;0.984;2023-09-19T14:39:02;8;6;
42410;PMS5003;28056;51.112;0.984;2023-09-19T14:41:30;7;4;
42410;PMS5003;28056;51.112;0.984;2023-09-19T14:43:57;12;7;
42410;PMS5003;28056;51.112;0.984;2023-09-19T14:46:25;10;5;
42410;PMS5003;28056;51.112;0.984;2023-09-19T14:48:53;6;5;
42410;PMS5003;28056;51.112;0.984;2023-09-19T14:51:20;4;4;
42410;PMS5003;28056;51.112;0.984;2023-09-19T14:53:48;6;4;
42410;PMS5003;28056;51.112;0.984;2023-09-19T14:56:15;5;5;
42410;PMS5003;28056;51.112;0.984;2023-09-19T14:58:43;8;5;
42410;PMS5003;28056;51.112;0.984;2023-09-19T15:01:11;5;4;
42410;PMS5003;28056;51.112;0.984;2023-09-19T15:03:40;7;6;
42410;PMS5003;28056;51.112;0.984;2023-09-19T15:06:08;9;6;
42410;PMS5003;28056;51.112;0.984;2023-09-19T15:08:37;7;7;
42410;PMS5003;28056;51.112;0.984;2023-09-19T15:11:05;13;4;
42410;PMS5003;28056;51.112;0.984;2023-09-19T15:13:33;6;6;
42410;PMS5003;28056;51.112;0.984;2023-09-19T15:16:00;6;5;
42410;PMS5003;28056;51.112;0.984;2023-09-19T15:18:29;7;5;
42410;PMS5003;28056;51.112;0.984;2023-09-19T15:21:00;6;5;
42410;PMS5003;28056;51.112;0.984;2023-09-19T15:23:27;8;5;
42410;PMS5003;28056;51.112;0.984;2023-09-19T15:25:55;4;4;
42410;PMS5003;28056;51.112;0.984;2023-09-19T15:28:22;6;6;
42410;PMS5003;28056;51.112;0.984;2023-09-19T15:30:50;6;4;
42410;PMS5003;28056;51.112;0.984;2023-09-19T15:33:23;4;3;
42410;PMS5003;28056;51.112;0.984;2023-09-19T15:35:50;9;5;
42410;PMS5003;28056;51.112;0.984;2023-09-19T15:38:18;6;5;
42410;PMS5003;28056;51.112;0.984;2023-09-19T15:40:46;4;3;
42410;PMS5003;28056;51.112;0.984;2023-09-19T15:43:13;10;5;
42410;PMS5003;28056;51.112;0.984;2023-09-19T15:45:41;8;4;
42410;PMS5003;28056;51.112;0.984;2023-09-19T15:48:08;8;4;
42410;PMS5003;28056;51.112;0.984;2023-09-19T15:50:36;6;5;
42410;PMS5003;28056;51.112;0.984;2023-09-19T15:53:03;7;6;
42410;PMS5003;28056;51.112;0.984;2023-09-19T15:55:31;6;5;
42410;PMS5003;28056;51.112;0.984;2023-09-19T15:58:00;11;6;
42410;PMS5003;28056;51.112;0.984;2023-09-19T16:00:28;4;4;
42410;PMS5003;28056;51.112;0.984;2023-09-19T16:02:55;8;5;
42410;PMS5003;28056;51.112;0.984;2023-09-19T16:05:23;7;6;
42410;PMS5003;28056;51.112;0.984;2023-09-19T16:07:51;9;9;
42410;PMS5003;28056;51.112;0.984;2023-09-19T16:10:18;8;7;
42410;PMS5003;28056;51.112;0.984;2023-09-19T16:12:45;6;6;
42410;PMS5003;28056;51.112;0.984;2023-09-19T16:15:13;8;7;
42410;PMS5003;28056;51.112;0.984;2023-09-19T16:17:40;10;6;
42410;PMS5003;28056;51.112;0.984;2023-09-19T16:20:07;7;6;
42410;PMS5003;28056;51.112;0.984;2023-09-19T16:22:35;5;5;
42410;PMS5003;28056;51.112;0.984;2023-09-19T16:25:03;6;5;
42410;PMS5003;28056;51.112;0.984;2023-09-19T16:27:31;8;6;
42410;PMS5003;28056;51.112;0.984;2023-09-19T16:30:00;13;4;
42410;PMS5003;28056;51.112;0.984;2023-09-19T16:32:27;13;6;
42410;PMS5003;28056;51.112;0.984;2023-09-19T16:34:55;11;7;
42410;PMS5003;28056;51.112;0.984;2023-09-19T16:37:22;8;6;
42410;PMS5003;28056;51.112;0.984;2023-09-19T16:39:50;10;5;
42410;PMS5003;28056;51.112;0.984;2023-09-19T16:42:17;6;5;
42410;PMS5003;28056;51.112;0.984;2023-09-19T16:44:45;11;6;
42410;PMS5003;28056;51.112;0.984;2023-09-19T16:47:12;7;7;
42410;PMS5003;28056;51.112;0.984;2023-09-19T16:49:40;9;6;
42410;PMS5003;28056;51.112;0.984;2023-09-19T16:52:07;7;5;
42410;PMS5003;28056;51.112;0.984;2023-09-19T16:54:35;8;6;
42410;PMS5003;28056;51.112;0.984;2023-09-19T16:57:02;4;4;
42410;PMS5003;28056;51.112;0.984;2023-09-19T16:59:30;6;5;
42410;PMS5003;28056;51.112;0.984;2023-09-19T17:01:58;7;6;
42410;PMS5003;28056;51.112;0.984;2023-09-19T17:04:25;9;6;
42410;PMS5003;28056;51.112;0.984;2023-09-19T17:06:53;8;5;
42410;PMS5003;28056;51.112;0.984;2023-09-19T17:09:20;9;6;